createdAt,value
2022-07-26T00:02:51.011Z,0.9
2022-07-26T00:05:51.341Z,1.35
2022-07-26T00:08:50.947Z,0.8
2022-07-26T00:11:50.911Z,0.8
2022-07-26T00:14:50.986Z,0.7
2022-07-26T00:17:50.958Z,1.25
2022-07-26T00:20:51.380Z,0.7
2022-07-26T00:23:50.976Z,0.65
2022-07-26T00:26:50.953Z,0.55
2022-07-26T00:29:50.985Z,0.7
2022-07-26T00:32:50.988Z,1.2
2022-07-26T00:35:50.951Z,1.1
2022-07-26T00:38:50.945Z,0.6
2022-07-26T00:41:50.959Z,1
2022-07-26T00:44:51.022Z,0.6
2022-07-26T00:47:50.950Z,0.55
2022-07-26T00:50:50.987Z,0.45
2022-07-26T00:53:50.978Z,0.7
2022-07-26T00:56:55.969Z,0.9
2022-07-26T00:59:50.989Z,0.55
2022-07-26T01:02:51.075Z,0.5
2022-07-26T01:05:51.005Z,0.6
2022-07-26T01:08:50.962Z,0.6
2022-07-26T01:11:50.996Z,0.7
2022-07-26T01:14:50.999Z,0.55
2022-07-26T01:17:51.026Z,0.85
2022-07-26T01:20:50.990Z,0.35
2022-07-26T01:23:51.072Z,0.75
2022-07-26T01:26:50.992Z,0.8
2022-07-26T01:29:50.989Z,1.4
2022-07-26T01:32:51.046Z,1.1
2022-07-26T01:35:50.990Z,0.95
2022-07-26T01:38:51.021Z,0.65
2022-07-26T01:41:50.986Z,0.65
2022-07-26T01:44:51.022Z,0.9
2022-07-26T01:47:51.054Z,1.2
2022-07-26T01:50:51.069Z,0.75
2022-07-26T01:53:51.030Z,0.6
2022-07-26T01:56:51.015Z,0.6
2022-07-26T01:59:51.027Z,0.9
2022-07-26T02:02:51.281Z,0.8
2022-07-26T02:05:51.359Z,1.55
2022-07-26T02:08:51.061Z,1.1
2022-07-26T02:11:51.039Z,0.85
2022-07-26T02:14:51.067Z,1.1
2022-07-26T02:17:51.031Z,0.95
2022-07-26T02:20:51.085Z,0.85
2022-07-26T02:23:52.053Z,1.15
2022-07-26T02:26:51.074Z,1.1
2022-07-26T02:29:51.071Z,1.9
2022-07-26T02:32:51.045Z,1.2
2022-07-26T02:35:51.062Z,1.15
2022-07-26T02:38:51.077Z,1.9
2022-07-26T02:41:51.070Z,3
2022-07-26T02:44:51.074Z,1.9
2022-07-26T02:47:51.111Z,2.1
2022-07-26T02:50:51.166Z,1
2022-07-26T02:53:51.070Z,0.95
2022-07-26T02:56:51.137Z,0.7
2022-07-26T02:59:51.065Z,1
2022-07-26T03:02:51.157Z,0.8
2022-07-26T03:05:51.082Z,1
2022-07-26T03:08:51.182Z,1.35
2022-07-26T03:11:51.121Z,0.65
2022-07-26T03:14:51.066Z,0.95
2022-07-26T03:17:51.120Z,0.45
2022-07-26T03:20:51.070Z,1.45
2022-07-26T03:23:51.106Z,0.4
2022-07-26T03:26:51.096Z,0.55
2022-07-26T03:29:51.126Z,0.35
2022-07-26T03:32:51.144Z,0.25
2022-07-26T03:35:51.685Z,0.15
2022-07-26T03:38:51.124Z,0.3
2022-07-26T03:41:51.127Z,0.35
2022-07-26T03:44:51.113Z,0.25
2022-07-26T03:47:51.142Z,0.05
2022-07-26T03:50:51.149Z,0
2022-07-26T03:53:51.185Z,0.35
2022-07-26T03:56:51.166Z,0.05
2022-07-26T03:59:51.134Z,0
2022-07-26T04:02:51.337Z,0.2
2022-07-26T04:05:53.569Z,0
2022-07-26T04:08:51.182Z,0
2022-07-26T04:11:51.179Z,0
2022-07-26T04:14:51.183Z,0
2022-07-26T04:17:51.221Z,0.35
2022-07-26T04:20:51.181Z,0.3
2022-07-26T04:23:52.447Z,0
2022-07-26T04:26:51.230Z,0
2022-07-26T04:29:51.221Z,0
2022-07-26T04:32:51.231Z,0
2022-07-26T04:35:51.245Z,0
2022-07-26T04:38:51.157Z,0
2022-07-26T04:41:51.252Z,0
2022-07-26T04:44:51.222Z,0.25
2022-07-26T04:47:51.331Z,0.2
2022-07-26T04:50:51.206Z,0.35
2022-07-26T04:53:51.196Z,0.15
2022-07-26T04:56:51.166Z,0.4
2022-07-26T05:00:10.077Z,0.45
2022-07-26T05:02:51.407Z,0.5
2022-07-26T05:05:51.172Z,0.65
2022-07-26T05:08:51.243Z,0.75
2022-07-26T05:11:51.230Z,0.5
2022-07-26T05:14:56.710Z,0.85
2022-07-26T05:17:51.277Z,1.1
2022-07-26T05:20:51.300Z,0.95
2022-07-26T05:23:51.278Z,0.8
2022-07-26T05:26:58.523Z,0.9
2022-07-26T05:29:51.276Z,0.9
2022-07-26T05:32:51.206Z,0.55
2022-07-26T05:35:51.266Z,0.9
2022-07-26T05:38:51.482Z,0.75
2022-07-26T05:41:51.248Z,1
2022-07-26T05:44:51.685Z,1.25
2022-07-26T05:47:51.260Z,1.1
2022-07-26T05:50:51.291Z,0.9
2022-07-26T05:53:51.237Z,1
2022-07-26T05:56:51.292Z,1.05
2022-07-26T05:59:51.287Z,1.05
2022-07-26T06:02:51.400Z,1.3
2022-07-26T06:05:51.246Z,1.3
2022-07-26T06:08:51.291Z,1.35
2022-07-26T06:11:51.246Z,1.25
2022-07-26T06:14:51.306Z,1.65
2022-07-26T06:17:51.278Z,0.7
2022-07-26T06:20:51.345Z,1.25
2022-07-26T06:23:51.311Z,1.1
2022-07-26T06:26:57.252Z,0.95
2022-07-26T06:29:51.482Z,1.2
2022-07-26T06:32:51.387Z,0.95
2022-07-26T06:35:51.422Z,1.35
2022-07-26T06:38:51.555Z,1.45
2022-07-26T06:41:51.470Z,1
2022-07-26T06:44:51.510Z,1.1
2022-07-26T06:47:51.407Z,0.85
2022-07-26T06:50:51.431Z,1.4
2022-07-26T06:53:51.445Z,1.55
2022-07-26T06:56:51.470Z,1.15
2022-07-26T06:59:51.492Z,1.4
2022-07-26T07:02:51.422Z,1.5
2022-07-26T07:05:51.482Z,1.25
2022-07-26T07:08:51.445Z,2.35
2022-07-26T07:12:02.587Z,1.25
2022-07-26T07:14:51.507Z,1
2022-07-26T07:17:51.415Z,1.5
2022-07-26T07:20:51.472Z,1.1
2022-07-26T07:23:51.425Z,1
2022-07-26T07:26:52.086Z,1.05
2022-07-26T07:29:51.427Z,0.9
2022-07-26T07:32:51.417Z,1.2
2022-07-26T07:35:51.439Z,1.2
2022-07-26T07:38:52.691Z,1.05
2022-07-26T07:41:51.671Z,1.25
2022-07-26T07:44:51.426Z,1.3
2022-07-26T07:47:51.578Z,0.7
2022-07-26T07:50:51.454Z,0.75
2022-07-26T07:53:57.925Z,1.45
2022-07-26T07:56:52.310Z,1.2
2022-07-26T07:59:51.697Z,1.05
2022-07-26T08:02:51.722Z,1.15
2022-07-26T08:05:52.043Z,1.25
2022-07-26T08:08:52.285Z,1.2
2022-07-26T08:11:52.314Z,1.6
2022-07-26T08:14:51.475Z,1.65
2022-07-26T08:17:55.001Z,2.25
2022-07-26T08:20:51.440Z,2.75
2022-07-26T08:23:51.465Z,1.05
2022-07-26T08:26:51.472Z,1.65
2022-07-26T08:29:51.395Z,1.15
2022-07-26T08:32:51.386Z,1.05
2022-07-26T08:35:51.701Z,1.15
2022-07-26T08:38:51.458Z,0.95
2022-07-26T08:41:51.424Z,1.25
2022-07-26T08:44:51.494Z,1.15
2022-07-26T08:48:16.458Z,1.1
2022-07-26T08:50:51.451Z,0.75
2022-07-26T08:53:51.828Z,1.1
2022-07-26T08:56:51.494Z,1.4
2022-07-26T08:59:51.436Z,1.2
2022-07-26T09:02:51.478Z,1.05
2022-07-26T09:05:51.396Z,0.9
2022-07-26T09:08:51.446Z,0.65
2022-07-26T09:11:51.416Z,1.55
2022-07-26T09:14:51.485Z,1.45
2022-07-26T09:17:51.475Z,1.05
2022-07-26T09:20:51.484Z,0.75
2022-07-26T09:23:51.484Z,0.75
2022-07-26T09:26:51.454Z,1.5
2022-07-26T09:29:51.498Z,1.6
2022-07-26T09:32:55.546Z,1.35
2022-07-26T09:35:53.199Z,1.45
2022-07-26T09:38:51.497Z,1.35
2022-07-26T09:42:17.728Z,1.1
2022-07-26T09:44:51.511Z,1.45
2022-07-26T09:47:51.440Z,1.55
2022-07-26T09:50:51.487Z,1.15
2022-07-26T09:53:51.535Z,1.95
2022-07-26T09:56:51.518Z,1.8
2022-07-26T09:59:51.483Z,1.3
2022-07-26T10:02:51.531Z,1.4
2022-07-26T10:05:51.473Z,1.25
2022-07-26T10:08:51.615Z,1.9
2022-07-26T10:11:51.536Z,1.1
2022-07-26T10:14:51.473Z,1.4
2022-07-26T10:17:54.955Z,1.55
2022-07-26T10:20:51.534Z,1.6
2022-07-26T10:23:51.521Z,2.5
2022-07-26T10:26:51.537Z,2.65
2022-07-26T10:29:51.501Z,1.9
2022-07-26T10:32:51.569Z,1.45
2022-07-26T10:35:51.546Z,1.4
2022-07-26T10:38:51.539Z,1.65
2022-07-26T10:41:51.555Z,2.25
2022-07-26T10:44:51.527Z,1
2022-07-26T10:47:51.495Z,1.4
2022-07-26T10:50:51.542Z,1.25
2022-07-26T10:53:51.567Z,2.25
2022-07-26T10:56:51.624Z,1.7
2022-07-26T10:59:56.858Z,1.5
2022-07-26T11:02:51.664Z,1.75
2022-07-26T11:05:52.291Z,2.85
2022-07-26T11:08:51.541Z,2.35
2022-07-26T11:11:51.614Z,1.6
2022-07-26T11:14:51.554Z,2.3
2022-07-26T11:17:51.544Z,1.8
2022-07-26T11:20:51.571Z,1.05
2022-07-26T11:23:51.545Z,3.35
2022-07-26T11:26:51.572Z,1
2022-07-26T11:29:52.459Z,1.9
2022-07-26T11:32:51.589Z,2.4
2022-07-26T11:35:51.670Z,1.8
2022-07-26T11:38:51.602Z,2.6
2022-07-26T11:41:51.555Z,2.35
2022-07-26T11:44:51.628Z,1.6
2022-07-26T11:47:51.684Z,1.55
2022-07-26T11:50:51.639Z,1.95
2022-07-26T11:53:51.605Z,2.35
2022-07-26T11:56:51.579Z,2.2
2022-07-26T11:59:51.621Z,2.15
2022-07-26T12:02:56.562Z,2.6
2022-07-26T12:05:51.817Z,2.65
2022-07-26T12:08:56.609Z,2.95
2022-07-26T12:11:51.586Z,2.6
2022-07-26T12:14:51.586Z,2.6
2022-07-26T12:17:51.675Z,4.25
2022-07-26T12:20:59.350Z,1.6
2022-07-26T12:23:51.688Z,1.55
2022-07-26T12:26:51.655Z,1.55
2022-07-26T12:29:51.660Z,2.2
2022-07-26T12:32:51.731Z,1.15
2022-07-26T12:35:51.661Z,1.7
2022-07-26T12:38:51.820Z,2
2022-07-26T12:41:51.696Z,2.45
2022-07-26T12:44:51.695Z,2.1
2022-07-26T12:47:51.606Z,1.55
2022-07-26T12:50:51.623Z,1.65
2022-07-26T12:53:51.635Z,1.8
2022-07-26T12:56:51.727Z,2.2
2022-07-26T12:59:51.681Z,1.25
2022-07-26T13:02:51.666Z,2.4
2022-07-26T13:05:51.647Z,1.5
2022-07-26T13:08:51.661Z,2.75
2022-07-26T13:11:51.695Z,2.25
2022-07-26T13:14:51.626Z,2
2022-07-26T13:17:51.682Z,1.75
2022-07-26T13:20:51.701Z,3.6
2022-07-26T13:23:51.685Z,2.2
2022-07-26T13:26:52.902Z,3.45
2022-07-26T13:29:51.666Z,2.75
2022-07-26T13:32:51.666Z,1.95
2022-07-26T13:35:52.411Z,2.9
2022-07-26T13:38:51.635Z,2.25
2022-07-26T13:41:52.275Z,1.8
2022-07-26T13:44:51.696Z,0.9
2022-07-26T13:47:51.743Z,1.9
2022-07-26T13:50:51.703Z,2.25
2022-07-26T13:53:56.511Z,2.55
2022-07-26T13:56:51.670Z,2.3
2022-07-26T13:59:51.721Z,1.75
2022-07-26T14:02:51.890Z,1.85
2022-07-26T14:05:51.722Z,1.45
2022-07-26T14:08:51.718Z,2.45
2022-07-26T14:11:51.757Z,1.7
2022-07-26T14:14:53.741Z,2.05
2022-07-26T14:17:51.791Z,1.55
2022-07-26T14:20:51.748Z,1.6
2022-07-26T14:23:51.705Z,2
2022-07-26T14:26:59.127Z,1.45
2022-07-26T14:29:51.716Z,2.4
2022-07-26T14:32:51.766Z,2.2
2022-07-26T14:35:51.826Z,2.8
2022-07-26T14:38:51.812Z,2
2022-07-26T14:41:51.732Z,2.3
2022-07-26T14:44:51.758Z,3.3
2022-07-26T14:47:51.776Z,3.45
2022-07-26T14:51:08.942Z,1.85
2022-07-26T14:53:51.761Z,2.65
2022-07-26T14:56:51.722Z,1.6
2022-07-26T14:59:51.767Z,3.8
2022-07-26T15:02:51.996Z,2.75
2022-07-26T15:05:51.739Z,2.15
2022-07-26T15:08:51.821Z,2.9
2022-07-26T15:11:51.802Z,2.2
2022-07-26T15:14:51.778Z,2.25
2022-07-26T15:17:51.792Z,3.5
2022-07-26T15:20:51.812Z,2
2022-07-26T15:23:51.777Z,2
2022-07-26T15:26:51.822Z,2.7
2022-07-26T15:29:51.912Z,2.05
2022-07-26T15:32:51.808Z,1.5
2022-07-26T15:35:51.794Z,1.45
2022-07-26T15:38:51.749Z,1.35
2022-07-26T15:41:52.184Z,2.1
2022-07-26T15:44:51.874Z,1.95
2022-07-26T15:48:04.566Z,1.65
2022-07-26T15:50:51.755Z,2.5
2022-07-26T15:53:51.856Z,1.5
2022-07-26T15:56:51.844Z,1.4
2022-07-26T15:59:51.854Z,0.9
2022-07-26T16:02:51.843Z,1.75
2022-07-26T16:05:51.838Z,1.85
2022-07-26T16:09:15.781Z,1.6
2022-07-26T16:11:51.891Z,2.45
2022-07-26T16:14:51.787Z,1.75
2022-07-26T16:17:51.859Z,1.85
2022-07-26T16:20:51.804Z,2
2022-07-26T16:23:51.931Z,1.25
2022-07-26T16:26:51.862Z,1.7
2022-07-26T16:29:53.546Z,1.7
2022-07-26T16:32:51.858Z,1
2022-07-26T16:35:51.884Z,1
2022-07-26T16:38:51.849Z,1.25
2022-07-26T16:41:51.886Z,1.1
2022-07-26T16:44:51.877Z,1.25
2022-07-26T16:47:53.681Z,1.35
2022-07-26T16:50:52.114Z,3.8
2022-07-26T16:53:51.838Z,2.05
2022-07-26T16:56:51.903Z,0.9
2022-07-26T16:59:51.870Z,1.45
2022-07-26T17:02:51.964Z,1.35
2022-07-26T17:05:51.873Z,1.35
2022-07-26T17:08:51.858Z,1.5
2022-07-26T17:11:52.124Z,1
2022-07-26T17:14:54.368Z,1.1
2022-07-26T17:17:51.933Z,1.1
2022-07-26T17:20:51.943Z,1.45
2022-07-26T17:23:51.963Z,1.5
2022-07-26T17:26:51.868Z,0.95
2022-07-26T17:29:51.933Z,1.2
2022-07-26T17:32:52.010Z,0.55
2022-07-26T17:35:51.897Z,0.75
2022-07-26T17:38:53.027Z,0.6
2022-07-26T17:41:51.882Z,1.25
2022-07-26T17:44:51.906Z,0.9
2022-07-26T17:47:51.922Z,0.9
2022-07-26T17:50:51.879Z,0.95
2022-07-26T17:53:54.299Z,0.9
2022-07-26T17:56:51.961Z,0.9
2022-07-26T17:59:51.906Z,0.85
2022-07-26T18:02:51.964Z,0.7
2022-07-26T18:05:52.096Z,0.65
2022-07-26T18:08:51.986Z,0.65
2022-07-26T18:11:51.988Z,0.55
2022-07-26T18:14:51.959Z,0.35
2022-07-26T18:17:51.943Z,0.4
2022-07-26T18:20:51.933Z,0.65
2022-07-26T18:24:15.655Z,0.4
2022-07-26T18:26:51.958Z,0.35
2022-07-26T18:29:51.996Z,0.4
2022-07-26T18:32:52.007Z,0.35
2022-07-26T18:35:51.960Z,0.35
2022-07-26T18:38:52.037Z,0.5
2022-07-26T18:41:51.979Z,0.2
2022-07-26T18:44:52.004Z,0.6
2022-07-26T18:47:53.671Z,0.25
2022-07-26T18:50:52.146Z,0.45
2022-07-26T18:53:52.096Z,0.35
2022-07-26T18:56:51.975Z,0.4
2022-07-26T18:59:51.996Z,0.4
2022-07-26T19:02:52.047Z,0.25
2022-07-26T19:05:51.987Z,0.35
2022-07-26T19:08:52.367Z,0.4
2022-07-26T19:11:52.533Z,0.2
2022-07-26T19:14:52.342Z,0.25
2022-07-26T19:17:55.027Z,0.35
2022-07-26T19:20:52.309Z,0.5
2022-07-26T19:23:52.223Z,0.35
2022-07-26T19:26:52.349Z,0.35
2022-07-26T19:29:55.268Z,0.15
2022-07-26T19:32:52.504Z,0.45
2022-07-26T19:35:55.104Z,0.35
2022-07-26T19:38:52.462Z,0.2
2022-07-26T19:41:52.036Z,0.2
2022-07-26T19:44:52.016Z,0.2
2022-07-26T19:47:52.088Z,0
2022-07-26T19:50:52.058Z,0.05
2022-07-26T19:53:52.038Z,0
2022-07-26T19:56:52.014Z,0
2022-07-26T19:59:52.035Z,0.2
2022-07-26T20:02:52.200Z,0.3
2022-07-26T20:05:52.013Z,0.2
2022-07-26T20:08:52.037Z,0.1
2022-07-26T20:11:52.127Z,0.25
2022-07-26T20:14:52.038Z,0.2
2022-07-26T20:17:52.069Z,0.35
2022-07-26T20:20:52.082Z,0.45
2022-07-26T20:23:52.151Z,0.5
2022-07-26T20:26:52.110Z,0.3
2022-07-26T20:29:53.431Z,0.4
2022-07-26T20:32:52.080Z,0.4
2022-07-26T20:35:56.033Z,0.3
2022-07-26T20:38:52.718Z,0.3
2022-07-26T20:41:53.629Z,0.35
2022-07-26T20:44:52.099Z,0.15
2022-07-26T20:47:52.018Z,0.2
2022-07-26T20:50:52.098Z,0.25
2022-07-26T20:53:52.034Z,0.35
2022-07-26T20:56:52.085Z,0.25
2022-07-26T20:59:52.061Z,0.2
2022-07-26T21:02:52.288Z,0.3
2022-07-26T21:05:52.054Z,0.25
2022-07-26T21:08:52.091Z,0.35
2022-07-26T21:11:52.079Z,0.3
2022-07-26T21:14:52.103Z,0.3
2022-07-26T21:17:52.071Z,0.25
2022-07-26T21:20:52.129Z,0.35
2022-07-26T21:23:52.148Z,0.15
2022-07-26T21:26:52.113Z,0.35
2022-07-26T21:29:52.205Z,0.1
2022-07-26T21:32:52.090Z,0
2022-07-26T21:35:52.183Z,0.15
2022-07-26T21:38:52.117Z,0
2022-07-26T21:41:52.165Z,0.1
2022-07-26T21:44:52.199Z,0.15
2022-07-26T21:47:52.115Z,0
2022-07-26T21:50:52.161Z,0.1
2022-07-26T21:53:52.132Z,0.4
2022-07-26T21:56:52.143Z,0.2
2022-07-26T21:59:52.095Z,0.25
2022-07-26T22:02:52.270Z,0.1
2022-07-26T22:05:54.992Z,0.2
2022-07-26T22:08:52.136Z,0.2
2022-07-26T22:11:52.182Z,0.1
2022-07-26T22:14:52.179Z,0.05
2022-07-26T22:17:52.180Z,0.1
2022-07-26T22:20:52.171Z,0.1
2022-07-26T22:23:52.170Z,0
2022-07-26T22:26:52.180Z,0.15
2022-07-26T22:29:52.163Z,0.25
2022-07-26T22:32:52.173Z,0.2
2022-07-26T22:35:52.182Z,0
2022-07-26T22:38:52.174Z,0
2022-07-26T22:42:14.707Z,0
2022-07-26T22:44:52.181Z,0
2022-07-26T22:47:57.161Z,0
2022-07-26T22:50:52.193Z,0
2022-07-26T22:53:52.138Z,0
2022-07-26T22:56:52.203Z,0
2022-07-26T22:59:52.209Z,0
2022-07-26T23:02:52.205Z,0
2022-07-26T23:05:53.282Z,0
2022-07-26T23:08:52.238Z,0
2022-07-26T23:11:52.185Z,0
2022-07-26T23:14:52.214Z,0
2022-07-26T23:17:52.265Z,0
2022-07-26T23:20:52.246Z,0
2022-07-26T23:23:52.237Z,0
2022-07-26T23:26:52.214Z,0
2022-07-26T23:29:52.283Z,0
2022-07-26T23:32:52.194Z,0
2022-07-26T23:35:52.230Z,0
2022-07-26T23:38:52.267Z,0
2022-07-26T23:41:52.248Z,0
2022-07-26T23:44:52.224Z,0
2022-07-26T23:47:52.178Z,0
2022-07-26T23:50:52.279Z,0
2022-07-26T23:53:52.275Z,0
2022-07-26T23:56:52.295Z,0
2022-07-26T23:59:52.283Z,0
